createdAt,value
2017-09-12T00:00:33.421Z,73.19
2017-09-12T00:01:42.250Z,73.44
2017-09-12T00:02:51.400Z,73.44
2017-09-12T00:04:00.234Z,73.34
2017-09-12T00:05:09.062Z,73.44
2017-09-12T00:06:17.889Z,73.24
2017-09-12T00:07:26.716Z,72.77
2017-09-12T00:08:35.547Z,72.86
2017-09-12T00:09:44.370Z,72.8
2017-09-12T00:10:53.202Z,73.05
2017-09-12T00:12:02.034Z,72.8
2017-09-12T00:13:10.861Z,73.24
2017-09-12T00:14:19.690Z,73.54
2017-09-12T00:15:28.516Z,73.09
2017-09-12T00:16:37.344Z,73.05
2017-09-12T00:17:46.170Z,72.9
2017-09-12T00:18:54.997Z,73.44
2017-09-12T00:20:03.829Z,73.24
2017-09-12T00:21:12.662Z,73.44
2017-09-12T00:22:21.485Z,72.96
2017-09-12T00:23:30.637Z,72.71
2017-09-12T00:24:39.469Z,72.8
2017-09-12T00:25:48.300Z,73.09
2017-09-12T00:26:57.130Z,73.05
2017-09-12T00:28:05.955Z,72.8
2017-09-12T00:29:14.783Z,72.86
2017-09-12T00:30:23.613Z,72.77
2017-09-12T00:31:32.438Z,72.86
2017-09-12T00:32:41.267Z,73.15
2017-09-12T00:33:50.103Z,73.72
2017-09-12T00:34:58.931Z,73.15
2017-09-12T00:36:07.754Z,73.15
2017-09-12T00:37:16.586Z,73.05
2017-09-12T00:38:25.418Z,72.86
2017-09-12T00:39:34.251Z,72.77
2017-09-12T00:40:43.079Z,72.86
2017-09-12T00:41:51.909Z,73.05
2017-09-12T00:43:00.738Z,72.86
2017-09-12T00:44:09.561Z,73.05
2017-09-12T00:45:18.388Z,72.77
2017-09-12T00:46:27.214Z,73.24
2017-09-12T00:47:36.047Z,72.96
2017-09-12T00:48:44.876Z,72.86
2017-09-12T00:49:53.705Z,73.44
2017-09-12T00:51:02.529Z,73.15
2017-09-12T00:52:11.358Z,73.63
2017-09-12T00:53:20.189Z,73.44
2017-09-12T00:54:29.018Z,73.15
2017-09-12T00:55:37.853Z,73.24
2017-09-12T00:56:46.679Z,73.34
2017-09-12T00:57:55.509Z,73.72
2017-09-12T00:59:04.343Z,73.24
2017-09-12T01:00:13.173Z,73.15
2017-09-12T01:01:21.996Z,72.96
2017-09-12T01:02:30.826Z,73.44
2017-09-12T01:03:39.656Z,73.72
2017-09-12T01:04:48.475Z,73.44
2017-09-12T01:05:57.630Z,73.44
2017-09-12T01:07:06.464Z,73.54
2017-09-12T01:08:15.290Z,73.63
2017-09-12T01:09:24.120Z,73.54
2017-09-12T01:10:32.941Z,73.63
2017-09-12T01:11:41.767Z,73.91
2017-09-12T01:12:50.599Z,74.11
2017-09-12T01:13:59.430Z,73.72
2017-09-12T01:15:08.255Z,74.01
2017-09-12T01:16:17.089Z,73.82
2017-09-12T01:17:26.237Z,73.91
2017-09-12T01:18:35.064Z,74.2
2017-09-12T01:19:43.893Z,74.11
2017-09-12T01:20:52.725Z,74.4
2017-09-12T01:22:01.551Z,73.91
2017-09-12T01:23:10.379Z,74.01
2017-09-12T01:24:19.206Z,74.11
2017-09-12T01:25:28.030Z,74.01
2017-09-12T01:26:36.869Z,73.44
2017-09-12T01:27:45.695Z,74.2
2017-09-12T01:28:54.522Z,73.91
2017-09-12T01:30:03.353Z,73.91
2017-09-12T01:31:12.177Z,73.72
2017-09-12T01:32:21.004Z,74.01
2017-09-12T01:33:29.833Z,74.49
2017-09-12T01:34:38.663Z,74.58
2017-09-12T01:35:47.486Z,74.65
2017-09-12T01:36:56.307Z,74.11
2017-09-12T01:38:05.138Z,74.2
2017-09-12T01:39:13.965Z,74.2
2017-09-12T01:40:22.800Z,74.26
2017-09-12T01:41:31.622Z,74.26
2017-09-12T01:42:40.450Z,74.26
2017-09-12T01:43:49.277Z,74.01
2017-09-12T01:44:58.104Z,74.45
2017-09-12T01:46:06.929Z,74.26
2017-09-12T01:47:15.756Z,74.74
2017-09-12T01:48:24.588Z,74.84
2017-09-12T01:49:33.413Z,74.93
2017-09-12T01:50:42.243Z,74.84
2017-09-12T01:51:51.067Z,74.74
2017-09-12T01:52:59.896Z,74.84
2017-09-12T01:54:08.721Z,75.02
2017-09-12T01:55:17.554Z,75.02
2017-09-12T01:56:26.382Z,74.55
2017-09-12T01:57:35.207Z,74.74
2017-09-12T01:58:44.035Z,75.02
2017-09-12T01:59:52.859Z,75.02
2017-09-12T02:01:01.687Z,74.65
2017-09-12T02:02:10.519Z,74.55
2017-09-12T02:03:19.345Z,74.84
2017-09-12T02:04:28.170Z,74.74
2017-09-12T02:05:36.998Z,74.65
2017-09-12T02:06:45.826Z,75.12
2017-09-12T02:07:54.653Z,75.31
2017-09-12T02:09:03.485Z,74.93
2017-09-12T02:10:12.311Z,75.41
2017-09-12T02:11:21.138Z,75.41
2017-09-12T02:12:29.986Z,75.22
2017-09-12T02:13:38.797Z,75.31
2017-09-12T02:14:47.952Z,75.79
2017-09-12T02:15:56.777Z,75.7
2017-09-12T02:17:05.602Z,75.51
2017-09-12T02:18:14.432Z,75.98
2017-09-12T02:19:23.260Z,75.7
2017-09-12T02:20:32.086Z,75.79
2017-09-12T02:21:40.910Z,75.7
2017-09-12T02:22:49.739Z,75.6
2017-09-12T02:23:58.569Z,75.02
2017-09-12T02:25:07.392Z,75.22
2017-09-12T02:26:16.218Z,75.02
2017-09-12T02:27:25.051Z,75.22
2017-09-12T02:28:33.873Z,75.76
2017-09-12T02:29:42.700Z,75.7
2017-09-12T02:30:51.525Z,75.6
2017-09-12T02:32:00.352Z,75.7
2017-09-12T02:33:09.175Z,75.7
2017-09-12T02:34:18.007Z,75.51
2017-09-12T02:35:26.831Z,75.7
2017-09-12T02:36:35.665Z,75.7
2017-09-12T02:37:44.487Z,75.7
2017-09-12T02:38:53.313Z,75.79
2017-09-12T02:40:02.147Z,75.51
2017-09-12T02:41:10.980Z,75.79
2017-09-12T02:42:19.803Z,75.7
2017-09-12T02:43:28.638Z,75.47
2017-09-12T02:44:37.464Z,75.76
2017-09-12T02:45:46.290Z,75.79
2017-09-12T02:46:55.115Z,76.18
2017-09-12T02:48:03.950Z,76.04
2017-09-12T02:49:12.772Z,76.46
2017-09-12T02:50:21.594Z,76.27
2017-09-12T02:51:30.424Z,76.18
2017-09-12T02:52:39.254Z,76.23
2017-09-12T02:53:48.094Z,76.52
2017-09-12T02:54:56.917Z,76.42
2017-09-12T02:56:05.738Z,76.33
2017-09-12T02:57:14.572Z,76.52
2017-09-12T02:58:23.395Z,76.23
2017-09-12T02:59:32.224Z,76.23
2017-09-12T03:00:41.053Z,76.71
2017-09-12T03:01:49.881Z,77.28
2017-09-12T03:02:58.705Z,76.62
2017-09-12T03:04:07.534Z,76.62
2017-09-12T03:05:16.362Z,76.62
2017-09-12T03:06:25.190Z,76.52
2017-09-12T03:07:34.015Z,76.62
2017-09-12T03:08:42.844Z,76.62
2017-09-12T03:09:51.672Z,76.62
2017-09-12T03:11:00.497Z,76.52
2017-09-12T03:12:09.325Z,76.42
2017-09-12T03:13:18.149Z,76.62
2017-09-12T03:14:26.974Z,76.81
2017-09-12T03:15:35.803Z,76.81
2017-09-12T03:16:44.628Z,76.9
2017-09-12T03:17:53.777Z,76.71
2017-09-12T03:19:02.610Z,76.71
2017-09-12T03:20:11.437Z,76.81
2017-09-12T03:21:20.271Z,76.9
2017-09-12T03:22:29.096Z,77.28
2017-09-12T03:23:37.922Z,77.38
2017-09-12T03:24:46.748Z,76.62
2017-09-12T03:25:55.942Z,77
2017-09-12T03:27:04.769Z,77.19
2017-09-12T03:28:13.596Z,77.19
2017-09-12T03:29:22.430Z,77.19
2017-09-12T03:30:31.255Z,77.19
2017-09-12T03:31:40.087Z,77.28
2017-09-12T03:32:48.911Z,77.67
2017-09-12T03:33:57.738Z,77.19
2017-09-12T03:35:06.564Z,77.57
2017-09-12T03:36:15.397Z,77.09
2017-09-12T03:37:24.223Z,77.76
2017-09-12T03:38:33.049Z,77.28
2017-09-12T03:39:42.201Z,77.86
2017-09-12T03:40:51.031Z,77.76
2017-09-12T03:41:59.854Z,77.67
2017-09-12T03:43:08.689Z,77.57
2017-09-12T03:44:17.508Z,77.76
2017-09-12T03:45:26.333Z,77.76
2017-09-12T03:46:35.165Z,77.76
2017-09-12T03:47:43.995Z,77.67
2017-09-12T03:48:52.824Z,77.57
2017-09-12T03:50:01.652Z,77.76
2017-09-12T03:51:10.478Z,77.57
2017-09-12T03:52:19.300Z,77.86
2017-09-12T03:53:28.133Z,77.86
2017-09-12T03:54:36.962Z,77.95
2017-09-12T03:55:45.788Z,78.05
2017-09-12T03:56:54.620Z,78.14
2017-09-12T03:58:03.464Z,77.86
2017-09-12T03:59:12.308Z,77.86
2017-09-12T04:00:21.157Z,78.24
2017-09-12T04:01:30.005Z,78.14
2017-09-12T04:02:38.850Z,78.05
2017-09-12T04:03:47.695Z,77.86
2017-09-12T04:04:56.542Z,78.24
2017-09-12T04:06:05.388Z,78.53
2017-09-12T04:07:14.287Z,78.14
2017-09-12T04:08:23.132Z,78.24
2017-09-12T04:09:31.976Z,78.05
2017-09-12T04:10:40.825Z,78.24
2017-09-12T04:11:49.670Z,79
2017-09-12T04:12:58.517Z,78.53
2017-09-12T04:14:07.365Z,78.63
2017-09-12T04:15:16.212Z,78.43
2017-09-12T04:16:25.061Z,78.63
2017-09-12T04:17:33.908Z,78.53
2017-09-12T04:18:42.752Z,78.63
2017-09-12T04:19:51.598Z,78.97
2017-09-12T04:21:00.445Z,78.49
2017-09-12T04:22:09.289Z,78.87
2017-09-12T04:23:18.461Z,79.06
2017-09-12T04:24:27.308Z,78.97
2017-09-12T04:25:36.157Z,79.16
2017-09-12T04:26:45.003Z,79.06
2017-09-12T04:27:53.849Z,79.1
2017-09-12T04:29:02.694Z,79.2
2017-09-12T04:30:11.546Z,79.06
2017-09-12T04:31:20.393Z,79.16
2017-09-12T04:32:29.238Z,78.87
2017-09-12T04:33:38.086Z,78.72
2017-09-12T04:34:46.931Z,79.06
2017-09-12T04:35:55.779Z,79.1
2017-09-12T04:37:04.636Z,79.35
2017-09-12T04:38:13.474Z,78.97
2017-09-12T04:39:22.318Z,78.97
2017-09-12T04:40:31.161Z,79.29
2017-09-12T04:41:40.010Z,79.16
2017-09-12T04:42:48.855Z,79.16
2017-09-12T04:43:57.703Z,78.87
2017-09-12T04:45:06.551Z,79.06
2017-09-12T04:46:15.396Z,79.06
2017-09-12T04:47:24.241Z,79.16
2017-09-12T04:48:33.087Z,79.16
2017-09-12T04:49:41.931Z,78.97
2017-09-12T04:50:50.779Z,79.2
2017-09-12T04:51:59.625Z,79.16
2017-09-12T04:53:08.471Z,78.72
2017-09-12T04:54:17.317Z,78.81
2017-09-12T04:55:26.167Z,78.43
2017-09-12T04:56:35.011Z,79.2
2017-09-12T04:57:43.859Z,79
2017-09-12T04:58:52.707Z,79.2
2017-09-12T05:00:01.550Z,78.63
2017-09-12T05:01:10.397Z,78.63
2017-09-12T05:02:19.245Z,78.72
2017-09-12T05:03:28.089Z,79
2017-09-12T05:04:36.938Z,78.91
2017-09-12T05:05:45.785Z,78.63
2017-09-12T05:06:54.630Z,78.63
2017-09-12T05:08:03.480Z,78.72
2017-09-12T05:09:12.323Z,79
2017-09-12T05:10:21.169Z,79
2017-09-12T05:11:30.017Z,79
2017-09-12T05:12:39.194Z,78.53
2017-09-12T05:13:48.036Z,78.63
2017-09-12T05:14:56.884Z,79
2017-09-12T05:16:05.732Z,78.63
2017-09-12T05:17:14.582Z,78.63
2017-09-12T05:18:23.430Z,78.63
2017-09-12T05:19:32.278Z,79
2017-09-12T05:20:41.125Z,78.91
2017-09-12T05:21:49.970Z,78.34
2017-09-12T05:22:58.822Z,78.24
2017-09-12T05:24:07.677Z,78.24
2017-09-12T05:25:16.847Z,78.05
2017-09-12T05:26:25.692Z,78.24
2017-09-12T05:27:34.541Z,78.24
2017-09-12T05:28:43.384Z,78.24
2017-09-12T05:29:52.232Z,78.05
2017-09-12T05:31:01.081Z,78.24
2017-09-12T05:32:09.924Z,78.14
2017-09-12T05:33:18.775Z,78.24
2017-09-12T05:34:27.621Z,78.24
2017-09-12T05:35:36.467Z,78.14
2017-09-12T05:36:45.315Z,78.34
2017-09-12T05:37:54.163Z,78.05
2017-09-12T05:39:03.010Z,78.05
2017-09-12T05:40:11.857Z,78.34
2017-09-12T05:41:20.705Z,77.57
2017-09-12T05:42:29.879Z,78.05
2017-09-12T05:43:38.729Z,77.28
2017-09-12T05:44:47.576Z,77.48
2017-09-12T05:45:56.422Z,77.13
2017-09-12T05:47:05.268Z,77.86
2017-09-12T05:48:14.113Z,77.86
2017-09-12T05:49:22.961Z,77.95
2017-09-12T05:50:31.810Z,77.57
2017-09-12T05:51:40.982Z,77.19
2017-09-12T05:52:49.828Z,77.42
2017-09-12T05:53:58.673Z,77.42
2017-09-12T05:55:07.523Z,77.8
2017-09-12T05:56:16.371Z,77.61
2017-09-12T05:57:25.221Z,77.13
2017-09-12T05:58:34.070Z,77.7
2017-09-12T05:59:42.915Z,77.51
2017-09-12T06:00:51.761Z,77.33
2017-09-12T06:02:00.610Z,77.61
2017-09-12T06:03:09.456Z,77.42
2017-09-12T06:04:18.304Z,77.61
2017-09-12T06:05:27.151Z,77.42
2017-09-12T06:06:35.996Z,77.23
2017-09-12T06:07:45.170Z,77.13
2017-09-12T06:08:54.015Z,76.94
2017-09-12T06:10:02.863Z,77.23
2017-09-12T06:11:12.041Z,77.23
2017-09-12T06:12:20.879Z,76.94
2017-09-12T06:13:29.729Z,76.94
2017-09-12T06:14:38.579Z,76.94
2017-09-12T06:15:47.424Z,77.04
2017-09-12T06:16:56.274Z,76.94
2017-09-12T06:18:05.121Z,76.65
2017-09-12T06:19:13.966Z,76.37
2017-09-12T06:20:22.816Z,77.42
2017-09-12T06:21:31.663Z,76.18
2017-09-12T06:22:40.510Z,76.46
2017-09-12T06:23:49.358Z,76.89
2017-09-12T06:24:58.207Z,77.46
2017-09-12T06:26:07.051Z,76.6
2017-09-12T06:27:15.899Z,76.6
2017-09-12T06:28:24.747Z,76.69
2017-09-12T06:29:33.594Z,76.21
2017-09-12T06:30:42.457Z,76.5
2017-09-12T06:31:51.285Z,76.21
2017-09-12T06:33:00.132Z,76.21
2017-09-12T06:34:08.981Z,76.6
2017-09-12T06:35:17.829Z,75.93
2017-09-12T06:36:26.677Z,75.64
2017-09-12T06:37:35.523Z,75.64
2017-09-12T06:38:44.697Z,75.83
2017-09-12T06:39:53.543Z,75.64
2017-09-12T06:41:02.717Z,76.02
2017-09-12T06:42:11.566Z,76.02
2017-09-12T06:43:20.418Z,76.02
2017-09-12T06:44:29.260Z,75.54
2017-09-12T06:45:38.111Z,75.93
2017-09-12T06:46:46.959Z,76.21
2017-09-12T06:47:55.811Z,76.31
2017-09-12T06:49:04.660Z,76.02
2017-09-12T06:50:13.508Z,76.21
2017-09-12T06:51:22.351Z,75.93
2017-09-12T06:52:31.526Z,75.45
2017-09-12T06:53:40.377Z,75.93
2017-09-12T06:54:49.225Z,75.35
2017-09-12T06:55:58.076Z,75.07
2017-09-12T06:57:06.921Z,75.26
2017-09-12T06:58:15.768Z,75.16
2017-09-12T06:59:24.617Z,75.26
2017-09-12T07:00:33.462Z,75.26
2017-09-12T07:01:42.310Z,75.1
2017-09-12T07:02:51.161Z,75.39
2017-09-12T07:04:00.007Z,75.48
2017-09-12T07:05:08.856Z,75.1
2017-09-12T07:06:17.708Z,74.97
2017-09-12T07:07:26.557Z,75.07
2017-09-12T07:08:35.400Z,74.87
2017-09-12T07:09:44.248Z,74.87
2017-09-12T07:10:53.095Z,74.72
2017-09-12T07:12:01.941Z,74.77
2017-09-12T07:13:10.793Z,74.62
2017-09-12T07:14:19.642Z,74.91
2017-09-12T07:15:28.489Z,75.2
2017-09-12T07:16:37.339Z,75.1
2017-09-12T07:17:46.186Z,74.91
2017-09-12T07:18:55.034Z,74.33
2017-09-12T07:20:03.883Z,74.33
2017-09-12T07:21:12.732Z,74.62
2017-09-12T07:22:21.582Z,74.24
2017-09-12T07:23:30.433Z,74.52
2017-09-12T07:24:39.280Z,74.33
2017-09-12T07:25:48.126Z,74.24
2017-09-12T07:26:56.974Z,74.24
2017-09-12T07:28:05.829Z,74.05
2017-09-12T07:29:14.679Z,74.33
2017-09-12T07:30:23.530Z,74.52
2017-09-12T07:31:32.377Z,74.05
2017-09-12T07:32:41.223Z,74.15
2017-09-12T07:33:50.076Z,74.33
2017-09-12T07:34:58.928Z,74.05
2017-09-12T07:36:07.773Z,73.76
2017-09-12T07:37:16.623Z,73.86
2017-09-12T07:38:25.469Z,74.08
2017-09-12T07:39:34.316Z,74.27
2017-09-12T07:40:43.166Z,74.37
2017-09-12T07:41:52.016Z,74.85
2017-09-12T07:43:00.861Z,74.57
2017-09-12T07:44:09.709Z,73.9
2017-09-12T07:45:18.559Z,74.18
2017-09-12T07:46:27.406Z,73.61
2017-09-12T07:47:36.588Z,73.51
2017-09-12T07:48:45.436Z,73.61
2017-09-12T07:49:54.284Z,73.03
2017-09-12T07:51:03.131Z,73.32
2017-09-12T07:52:12.306Z,73.41
2017-09-12T07:53:21.473Z,73.32
2017-09-12T07:54:30.320Z,73.32
2017-09-12T07:55:39.169Z,72.94
2017-09-12T07:56:48.015Z,73.03
2017-09-12T07:57:56.864Z,72.64
2017-09-12T07:59:05.714Z,72.84
2017-09-12T08:00:14.562Z,72.94
2017-09-12T08:01:23.414Z,72.94
2017-09-12T08:02:32.265Z,72.94
2017-09-12T08:03:41.112Z,73.13
2017-09-12T08:04:49.960Z,72.74
2017-09-12T08:05:58.813Z,72.94
2017-09-12T08:07:07.663Z,72.84
2017-09-12T08:08:16.510Z,72.94
2017-09-12T08:09:25.356Z,72.94
2017-09-12T08:10:34.208Z,73.03
2017-09-12T08:11:43.054Z,72.84
2017-09-12T08:12:51.904Z,72.94
2017-09-12T08:14:00.754Z,72.94
2017-09-12T08:15:09.603Z,73.32
2017-09-12T08:16:18.453Z,73.51
2017-09-12T08:17:27.301Z,72.84
2017-09-12T08:18:36.152Z,73.03
2017-09-12T08:19:44.999Z,73.03
2017-09-12T08:20:53.844Z,72.94
2017-09-12T08:22:02.695Z,73.03
2017-09-12T08:23:11.544Z,72.84
2017-09-12T08:24:20.392Z,72.94
2017-09-12T08:25:29.244Z,72.84
2017-09-12T08:26:38.092Z,72.94
2017-09-12T08:27:46.948Z,73.13
2017-09-12T08:28:55.798Z,73.13
2017-09-12T08:30:04.645Z,73.03
2017-09-12T08:31:13.494Z,73.13
2017-09-12T08:32:22.343Z,73.03
2017-09-12T08:33:31.191Z,73.51
2017-09-12T08:34:40.040Z,73.41
2017-09-12T08:35:48.890Z,73.7
2017-09-12T08:36:57.737Z,73.51
2017-09-12T08:38:06.588Z,73.61
2017-09-12T08:39:15.439Z,74.18
2017-09-12T08:40:24.287Z,73.51
2017-09-12T08:41:33.133Z,73.55
2017-09-12T08:42:41.981Z,73.65
2017-09-12T08:43:50.831Z,73.26
2017-09-12T08:44:59.682Z,73.35
2017-09-12T08:46:08.530Z,72.97
2017-09-12T08:47:17.386Z,72.97
2017-09-12T08:48:26.231Z,72.78
2017-09-12T08:49:35.081Z,72.78
2017-09-12T08:50:43.929Z,72.97
2017-09-12T08:51:52.777Z,72.88
2017-09-12T08:53:01.629Z,72.88
2017-09-12T08:54:10.473Z,73.16
2017-09-12T08:55:19.323Z,72.88
2017-09-12T08:56:28.170Z,73.07
2017-09-12T08:57:37.021Z,73.07
2017-09-12T08:58:45.869Z,72.78
2017-09-12T08:59:54.720Z,72.68
2017-09-12T09:01:03.567Z,72.97
2017-09-12T09:02:12.414Z,72.2
2017-09-12T09:03:21.264Z,72.39
2017-09-12T09:04:30.112Z,72.39
2017-09-12T09:05:38.961Z,72.78
2017-09-12T09:06:47.809Z,72.11
2017-09-12T09:07:56.660Z,71.92
2017-09-12T09:09:05.509Z,71.92
2017-09-12T09:10:14.358Z,71.82
2017-09-12T09:11:23.209Z,72.01
2017-09-12T09:12:32.054Z,71.72
2017-09-12T09:13:40.905Z,71.82
2017-09-12T09:14:49.752Z,72.05
2017-09-12T09:15:58.598Z,72.14
2017-09-12T09:17:07.445Z,72.43
2017-09-12T09:18:16.296Z,72.05
2017-09-12T09:19:25.143Z,72.33
2017-09-12T09:20:33.992Z,71.95
2017-09-12T09:21:42.838Z,71.95
2017-09-12T09:22:51.684Z,71.66
2017-09-12T09:24:00.535Z,71.19
2017-09-12T09:25:09.385Z,70.7
2017-09-12T09:26:18.235Z,71.47
2017-09-12T09:27:27.086Z,71.28
2017-09-12T09:28:35.933Z,71.37
2017-09-12T09:29:44.779Z,70.9
2017-09-12T09:30:53.631Z,71.19
2017-09-12T09:32:02.481Z,70.8
2017-09-12T09:33:11.328Z,70.61
2017-09-12T09:34:20.175Z,70.26
2017-09-12T09:35:29.025Z,70.45
2017-09-12T09:36:37.874Z,70.07
2017-09-12T09:37:46.725Z,70.17
2017-09-12T09:38:55.576Z,69.87
2017-09-12T09:40:04.425Z,69.97
2017-09-12T09:41:13.274Z,69.78
2017-09-12T09:42:22.122Z,69.2
2017-09-12T09:43:30.968Z,69.49
2017-09-12T09:44:39.818Z,68.95
2017-09-12T09:45:48.669Z,69.4
2017-09-12T09:46:57.516Z,69.05
2017-09-12T09:48:06.364Z,68.05
2017-09-12T09:49:15.214Z,67.99
2017-09-12T09:50:24.064Z,68.08
2017-09-12T09:51:32.917Z,67.99
2017-09-12T09:52:41.767Z,68.08
2017-09-12T09:53:50.613Z,68.08
2017-09-12T09:54:59.465Z,67.61
2017-09-12T09:56:08.318Z,67.99
2017-09-12T09:57:17.166Z,67.9
2017-09-12T09:58:26.016Z,67.8
2017-09-12T09:59:34.868Z,67.13
2017-09-12T10:00:43.716Z,67.13
2017-09-12T10:01:52.563Z,67.51
2017-09-12T10:03:01.737Z,67.41
2017-09-12T10:04:10.909Z,67.38
2017-09-12T10:05:19.759Z,67.61
2017-09-12T10:06:28.610Z,67.32
2017-09-12T10:07:37.458Z,66.93
2017-09-12T10:08:46.309Z,66.93
2017-09-12T10:09:55.158Z,67.22
2017-09-12T10:11:04.010Z,67.13
2017-09-12T10:12:12.861Z,67.41
2017-09-12T10:13:21.712Z,67.32
2017-09-12T10:14:30.561Z,67.22
2017-09-12T10:15:39.412Z,67.9
2017-09-12T10:16:48.264Z,67.41
2017-09-12T10:17:57.116Z,67.41
2017-09-12T10:19:05.967Z,68.08
2017-09-12T10:20:14.814Z,67.32
2017-09-12T10:21:23.664Z,67.61
2017-09-12T10:22:32.514Z,67.61
2017-09-12T10:23:41.365Z,67.41
2017-09-12T10:24:50.217Z,67.51
2017-09-12T10:25:59.066Z,67.61
2017-09-12T10:27:07.915Z,67.13
2017-09-12T10:28:16.764Z,66.36
2017-09-12T10:29:25.613Z,66.46
2017-09-12T10:30:34.461Z,66.36
2017-09-12T10:31:43.313Z,66.55
2017-09-12T10:32:52.161Z,66.84
2017-09-12T10:34:01.012Z,66.36
2017-09-12T10:35:09.859Z,66.16
2017-09-12T10:36:18.708Z,67.03
2017-09-12T10:37:27.559Z,66.74
2017-09-12T10:38:36.411Z,67.03
2017-09-12T10:39:45.256Z,66.84
2017-09-12T10:40:54.108Z,66.93
2017-09-12T10:42:02.959Z,67.41
2017-09-12T10:43:11.807Z,67.13
2017-09-12T10:44:20.660Z,67.13
2017-09-12T10:45:29.511Z,67.07
2017-09-12T10:46:38.361Z,66.2
2017-09-12T10:47:47.209Z,65.72
2017-09-12T10:48:56.061Z,65.72
2017-09-12T10:50:04.911Z,65.53
2017-09-12T10:51:13.760Z,65.23
2017-09-12T10:52:22.611Z,65.53
2017-09-12T10:53:31.458Z,65.43
2017-09-12T10:54:40.308Z,65.33
2017-09-12T10:55:49.159Z,65.62
2017-09-12T10:56:58.007Z,65.23
2017-09-12T10:58:06.860Z,65.33
2017-09-12T10:59:15.710Z,65.33
2017-09-12T11:00:24.558Z,65.05
2017-09-12T11:01:33.406Z,64.56
2017-09-12T11:02:42.254Z,64.85
2017-09-12T11:03:51.104Z,65.43
2017-09-12T11:04:59.953Z,65.23
2017-09-12T11:06:08.806Z,65.43
2017-09-12T11:07:17.655Z,65.14
2017-09-12T11:08:26.506Z,65.53
2017-09-12T11:09:35.356Z,65.23
2017-09-12T11:10:44.203Z,65.62
2017-09-12T11:11:53.057Z,65.91
2017-09-12T11:13:01.910Z,65.91
2017-09-12T11:14:10.759Z,65.91
2017-09-12T11:15:19.929Z,65.91
2017-09-12T11:16:28.780Z,66
2017-09-12T11:17:37.630Z,65.62
2017-09-12T11:18:46.483Z,65.81
2017-09-12T11:19:55.332Z,65.72
2017-09-12T11:21:04.183Z,65.62
2017-09-12T11:22:13.029Z,65.46
2017-09-12T11:23:21.882Z,65.17
2017-09-12T11:24:30.732Z,65.27
2017-09-12T11:25:39.580Z,64.98
2017-09-12T11:26:48.431Z,64.98
2017-09-12T11:27:57.279Z,65.08
2017-09-12T11:29:06.127Z,64.98
2017-09-12T11:30:14.981Z,65.17
2017-09-12T11:31:23.836Z,65.17
2017-09-12T11:32:32.687Z,64.98
2017-09-12T11:33:41.539Z,66.04
2017-09-12T11:34:50.387Z,66.23
2017-09-12T11:35:59.233Z,66.42
2017-09-12T11:37:08.086Z,66.3
2017-09-12T11:38:16.936Z,66.52
2017-09-12T11:39:25.786Z,66.23
2017-09-12T11:40:34.638Z,66.2
2017-09-12T11:41:43.489Z,65.91
2017-09-12T11:42:52.339Z,65.84
2017-09-12T11:44:01.189Z,65.66
2017-09-12T11:45:10.044Z,65.66
2017-09-12T11:46:18.893Z,65.75
2017-09-12T11:47:27.744Z,65.27
2017-09-12T11:48:36.592Z,64.98
2017-09-12T11:49:45.440Z,65.56
2017-09-12T11:50:54.619Z,65.27
2017-09-12T11:52:03.471Z,64.79
2017-09-12T11:53:12.319Z,64.79
2017-09-12T11:54:21.172Z,64.69
2017-09-12T11:55:30.021Z,64.79
2017-09-12T11:56:38.870Z,64.89
2017-09-12T11:57:47.721Z,64.79
2017-09-12T11:58:56.570Z,64.69
2017-09-12T12:00:05.422Z,65.08
2017-09-12T12:01:14.277Z,65.08
2017-09-12T12:02:23.125Z,65.27
2017-09-12T12:03:31.977Z,65.17
2017-09-12T12:04:40.826Z,65.37
2017-09-12T12:05:49.675Z,64.98
2017-09-12T12:06:58.524Z,65.08
2017-09-12T12:08:07.374Z,65.17
2017-09-12T12:09:16.220Z,65.17
2017-09-12T12:10:25.071Z,65.37
2017-09-12T12:11:33.922Z,65.37
2017-09-12T12:12:42.767Z,65.17
2017-09-12T12:13:51.619Z,65.4
2017-09-12T12:15:00.470Z,64.82
2017-09-12T12:16:09.320Z,64.73
2017-09-12T12:17:18.171Z,64.63
2017-09-12T12:18:27.019Z,64.34
2017-09-12T12:19:35.871Z,64.53
2017-09-12T12:20:44.723Z,64.34
2017-09-12T12:21:53.574Z,64.43
2017-09-12T12:23:02.422Z,64.25
2017-09-12T12:24:11.275Z,64.92
2017-09-12T12:25:20.126Z,64.43
2017-09-12T12:26:28.977Z,64.34
2017-09-12T12:27:37.828Z,64.43
2017-09-12T12:28:46.683Z,64.34
2017-09-12T12:29:55.532Z,64.25
2017-09-12T12:31:04.386Z,63.86
2017-09-12T12:32:13.237Z,63.76
2017-09-12T12:33:22.087Z,64.05
2017-09-12T12:34:30.939Z,63.95
2017-09-12T12:35:39.790Z,63.92
2017-09-12T12:36:48.641Z,64.5
2017-09-12T12:37:57.489Z,64.5
2017-09-12T12:39:06.343Z,64.89
2017-09-12T12:40:15.193Z,64.73
2017-09-12T12:41:24.043Z,64.69
2017-09-12T12:42:32.898Z,64.73
2017-09-12T12:43:41.746Z,64.98
2017-09-12T12:44:50.594Z,64.73
2017-09-12T12:45:59.452Z,64.25
2017-09-12T12:47:08.302Z,64.4
2017-09-12T12:48:17.155Z,64.22
2017-09-12T12:49:26.008Z,64.5
2017-09-12T12:50:34.877Z,64.89
2017-09-12T12:51:43.709Z,64.5
2017-09-12T12:52:52.564Z,64.89
2017-09-12T12:54:01.413Z,64.6
2017-09-12T12:55:10.268Z,64.69
2017-09-12T12:56:19.116Z,64.89
2017-09-12T12:57:27.966Z,64.6
2017-09-12T12:58:36.814Z,64.6
2017-09-12T12:59:45.669Z,64.98
2017-09-12T13:00:54.520Z,64.6
2017-09-12T13:02:03.370Z,64.02
2017-09-12T13:03:12.223Z,63.73
2017-09-12T13:04:21.072Z,63.83
2017-09-12T13:05:29.920Z,64.02
2017-09-12T13:06:38.770Z,63.83
2017-09-12T13:07:47.624Z,63.35
2017-09-12T13:08:56.481Z,63.25
2017-09-12T13:10:05.657Z,63.15
2017-09-12T13:11:14.506Z,63.15
2017-09-12T13:12:23.357Z,62.96
2017-09-12T13:13:32.209Z,62.96
2017-09-12T13:14:41.062Z,63.25
2017-09-12T13:15:49.913Z,63.25
2017-09-12T13:16:58.765Z,63.06
2017-09-12T13:18:07.617Z,63.45
2017-09-12T13:19:16.468Z,63.73
2017-09-12T13:20:25.320Z,63.83
2017-09-12T13:21:34.174Z,64.02
2017-09-12T13:22:43.023Z,64.6
2017-09-12T13:23:51.875Z,64.79
2017-09-12T13:25:00.725Z,64.69
2017-09-12T13:26:09.575Z,64.69
2017-09-12T13:27:18.429Z,64.98
2017-09-12T13:28:27.280Z,64.79
2017-09-12T13:29:36.130Z,64.89
2017-09-12T13:30:44.985Z,64.79
2017-09-12T13:31:53.838Z,64.22
2017-09-12T13:33:02.687Z,63.15
2017-09-12T13:34:11.538Z,63.25
2017-09-12T13:35:20.390Z,62.68
2017-09-12T13:36:29.242Z,62.38
2017-09-12T13:37:38.092Z,63.25
2017-09-12T13:38:46.942Z,63.35
2017-09-12T13:39:55.787Z,63.15
2017-09-12T13:41:04.640Z,62.96
2017-09-12T13:42:13.492Z,63.64
2017-09-12T13:43:22.342Z,64.12
2017-09-12T13:44:31.194Z,64.22
2017-09-12T13:45:40.042Z,64.79
2017-09-12T13:49:01.876Z,65.94
2017-09-12T13:50:10.736Z,65.94
2017-09-12T13:51:19.591Z,66.61
2017-09-12T13:52:28.449Z,66.61
2017-09-12T13:53:37.309Z,66.77
2017-09-12T13:54:46.164Z,66.52
2017-09-12T13:55:55.025Z,66.23
2017-09-12T13:57:03.881Z,66.14
2017-09-12T13:58:12.742Z,66.71
2017-09-12T13:59:21.603Z,67
2017-09-12T14:00:30.460Z,67
2017-09-12T14:01:39.324Z,66.91
2017-09-12T14:02:48.178Z,66.81
2017-09-12T14:03:57.034Z,66.91
2017-09-12T14:05:05.894Z,67
2017-09-12T14:06:14.754Z,66.91
2017-09-12T14:07:23.613Z,66.23
2017-09-12T14:08:32.469Z,66.33
2017-09-12T14:09:41.657Z,66.33
2017-09-12T14:10:50.513Z,66.23
2017-09-12T14:11:59.373Z,65.84
2017-09-12T14:13:08.232Z,66.04
2017-09-12T14:14:17.097Z,65.66
2017-09-12T14:15:25.958Z,65.94
2017-09-12T14:16:34.816Z,65.37
2017-09-12T14:17:43.674Z,65.46
2017-09-12T14:18:52.534Z,65.17
2017-09-12T14:20:01.393Z,64.69
2017-09-12T14:21:10.252Z,64.69
2017-09-12T14:22:19.436Z,64.22
2017-09-12T14:23:28.292Z,63.64
2017-09-12T14:24:37.146Z,63.83
2017-09-12T14:25:46.008Z,63.54
2017-09-12T14:26:54.866Z,63.45
2017-09-12T14:28:03.724Z,63.25
2017-09-12T14:29:12.581Z,63.06
2017-09-12T14:30:21.443Z,62.51
2017-09-12T14:31:30.301Z,62.9
2017-09-12T14:32:39.163Z,62.9
2017-09-12T14:33:48.022Z,62.32
2017-09-12T14:34:56.877Z,61.84
2017-09-12T14:36:05.732Z,61.55
2017-09-12T14:37:14.593Z,61.61
2017-09-12T14:38:23.453Z,61.91
2017-09-12T14:39:32.315Z,62.38
2017-09-12T14:40:41.173Z,62.48
2017-09-12T14:41:50.028Z,62.68
2017-09-12T14:42:59.215Z,63.06
2017-09-12T14:44:08.077Z,63.45
2017-09-12T14:45:16.934Z,63.92
2017-09-12T14:46:25.797Z,63.92
2017-09-12T14:47:34.653Z,64.31
2017-09-12T14:48:43.512Z,64.4
2017-09-12T14:49:52.371Z,64.85
2017-09-12T14:51:01.236Z,64.95
2017-09-12T14:52:10.093Z,65.08
2017-09-12T14:53:18.952Z,65.46